createdAt,value
2023-02-03T00:02:14.135Z,15.82
2023-02-03T00:04:42.659Z,17.13
2023-02-03T00:07:13.920Z,14.27
2023-02-03T00:09:42.885Z,17.67
2023-02-03T00:12:12.319Z,13.32
2023-02-03T00:14:40.757Z,12.27
2023-02-03T00:17:09.830Z,13.73
2023-02-03T00:19:38.220Z,13.77
2023-02-03T00:22:07.434Z,11.70
2023-02-03T00:24:37.683Z,12.52
2023-02-03T00:27:06.798Z,14.13
2023-02-03T00:29:35.261Z,11.50
2023-02-03T00:32:06.598Z,11.60
2023-02-03T00:34:35.190Z,13.52
2023-02-03T00:37:05.399Z,11.45
2023-02-03T00:39:44.235Z,14.30
2023-02-03T00:42:19.017Z,11.95
2023-02-03T00:44:56.312Z,10.05
2023-02-03T00:47:27.368Z,19.35
2023-02-03T00:49:55.851Z,23.23
2023-02-03T00:52:25.248Z,14.60
2023-02-03T00:55:01.375Z,18.60
2023-02-03T00:57:32.034Z,17.75
2023-02-03T01:00:00.463Z,18.88
2023-02-03T01:02:32.292Z,27.48
2023-02-03T01:05:01.050Z,23.05
2023-02-03T01:07:32.990Z,35.83
2023-02-03T01:10:01.582Z,35.42
2023-02-03T01:12:31.734Z,22.23
2023-02-03T01:15:00.894Z,20.58
2023-02-03T01:17:30.701Z,18.25
2023-02-03T01:19:59.473Z,15.98
2023-02-03T01:22:30.872Z,13.93
2023-02-03T01:24:59.517Z,14.25
2023-02-03T01:27:28.507Z,15.38
2023-02-03T01:29:58.209Z,15.82
2023-02-03T01:32:28.439Z,15.88
2023-02-03T01:34:57.949Z,16.13
2023-02-03T01:37:26.778Z,12.70
2023-02-03T01:39:56.140Z,16.92
2023-02-03T01:42:25.000Z,11.43
2023-02-03T01:44:55.249Z,12.13
2023-02-03T01:47:32.535Z,14.25
2023-02-03T01:50:37.533Z,12.45
2023-02-03T01:53:12.911Z,14.60
2023-02-03T01:55:51.045Z,12.68
2023-02-03T01:58:32.003Z,14.95
2023-02-03T02:01:00.523Z,15.43
2023-02-03T02:03:40.395Z,12.30
2023-02-03T02:06:14.452Z,11.52
2023-02-03T02:08:53.752Z,11.45
2023-02-03T02:11:22.227Z,10.75
2023-02-03T02:13:54.221Z,14.40
2023-02-03T02:16:58.619Z,10.90
2023-02-03T02:19:48.753Z,9.10
2023-02-03T02:22:27.835Z,9.30
2023-02-03T02:27:51.444Z,10.02
2023-02-03T02:30:57.480Z,10.10
2023-02-03T02:33:41.026Z,11.45
2023-02-03T02:36:31.764Z,12.32
2023-02-03T02:39:10.072Z,11.73
2023-02-03T02:41:42.455Z,8.93
2023-02-03T02:44:22.398Z,12.40
2023-02-03T02:46:57.082Z,9.13
2023-02-03T02:49:47.312Z,11.70
2023-02-03T02:52:18.564Z,13.75
2023-02-03T02:54:52.181Z,12.40
2023-02-03T02:57:27.902Z,12.90
2023-02-03T02:59:56.764Z,11.75
2023-02-03T03:02:35.712Z,12.02
2023-02-03T03:05:07.932Z,10.90
2023-02-03T03:07:50.959Z,13.52
2023-02-03T03:10:24.807Z,13.35
2023-02-03T03:12:58.759Z,11.95
2023-02-03T03:15:31.279Z,13.20
2023-02-03T03:18:33.229Z,13.73
2023-02-03T03:21:06.661Z,10.73
2023-02-03T03:23:42.564Z,16.38
2023-02-03T03:26:51.315Z,14.95
2023-02-03T03:29:25.249Z,15.30
2023-02-03T03:31:54.420Z,14.73
2023-02-03T03:34:23.434Z,13.55
2023-02-03T03:37:02.124Z,19.58
2023-02-03T03:39:46.069Z,14.50
2023-02-03T03:42:47.418Z,14.68
2023-02-03T03:45:25.060Z,16.35
2023-02-03T03:48:15.299Z,15.52
2023-02-03T03:50:51.690Z,18.20
2023-02-03T03:53:21.981Z,20.45
2023-02-03T03:55:53.184Z,15.85
2023-02-03T03:58:27.138Z,15.85
2023-02-03T04:01:00.398Z,14.75
2023-02-03T04:03:33.466Z,15.98
2023-02-03T04:06:02.446Z,16.48
2023-02-03T04:08:30.823Z,15.63
2023-02-03T04:10:59.460Z,18.52
2023-02-03T04:13:27.796Z,13.30
2023-02-03T04:15:56.427Z,14.90
2023-02-03T04:18:25.353Z,15.10
2023-02-03T04:20:53.967Z,15.07
2023-02-03T04:23:22.363Z,14.73
2023-02-03T04:25:50.996Z,16.35
2023-02-03T04:28:19.356Z,17.33
2023-02-03T04:30:48.251Z,14.68
2023-02-03T04:33:16.657Z,16.70
2023-02-03T04:35:45.354Z,11.73
2023-02-03T04:38:14.742Z,14.52
2023-02-03T04:40:45.678Z,16.23
2023-02-03T04:43:15.195Z,14.75
2023-02-03T04:45:45.329Z,16.13
2023-02-03T04:48:16.627Z,17.73
2023-02-03T04:50:45.396Z,13.10
2023-02-03T04:53:15.932Z,14.07
2023-02-03T04:55:49.047Z,14.10
2023-02-03T04:58:17.439Z,11.10
2023-02-03T05:00:46.037Z,10.38
2023-02-03T05:03:19.407Z,12.82
2023-02-03T05:05:50.105Z,13.27
2023-02-03T05:08:18.475Z,12.88
2023-02-03T05:10:47.263Z,8.45
2023-02-03T05:13:15.792Z,25.80
2023-02-03T05:15:44.638Z,25.35
2023-02-03T05:18:12.950Z,20.52
2023-02-03T05:20:41.577Z,13.55
2023-02-03T05:23:09.937Z,10.88
2023-02-03T05:25:38.535Z,11.13
2023-02-03T05:28:07.085Z,13.27
2023-02-03T05:30:36.219Z,10.57
2023-02-03T05:33:04.644Z,11.60
2023-02-03T05:35:33.915Z,15.07
2023-02-03T05:38:02.582Z,13.98
2023-02-03T05:40:49.675Z,10.77
2023-02-03T05:43:43.704Z,12.68
2023-02-03T05:46:12.653Z,13.32
2023-02-03T05:48:41.070Z,11.23
2023-02-03T05:51:10.128Z,11.18
2023-02-03T05:53:38.422Z,12.27
2023-02-03T05:56:07.242Z,13.88
2023-02-03T05:58:35.719Z,16.50
2023-02-03T06:01:10.307Z,15.88
2023-02-03T06:03:39.371Z,17.30
2023-02-03T06:06:08.498Z,20.58
2023-02-03T06:08:37.688Z,22.45
2023-02-03T06:11:06.463Z,26.83
2023-02-03T06:13:35.272Z,31.15
2023-02-03T06:16:04.552Z,27.58
2023-02-03T06:18:32.980Z,18.33
2023-02-03T06:21:01.995Z,20.67
2023-02-03T06:23:31.438Z,20.85
2023-02-03T06:26:00.635Z,17.95
2023-02-03T06:28:29.801Z,24.25
2023-02-03T06:30:58.641Z,20.08
2023-02-03T06:33:29.316Z,19.48
2023-02-03T06:35:58.493Z,19.85
2023-02-03T06:38:26.997Z,19.08
2023-02-03T06:40:55.956Z,23.20
2023-02-03T06:43:24.296Z,22.45
2023-02-03T06:45:53.246Z,22.05
2023-02-03T06:48:21.849Z,16.30
2023-02-03T06:50:50.602Z,16.38
2023-02-03T06:53:21.520Z,14.40
2023-02-03T06:55:50.366Z,19.15
2023-02-03T06:58:18.791Z,18.55
2023-02-03T07:00:47.749Z,14.73
2023-02-03T07:03:16.059Z,18.13
2023-02-03T07:05:44.947Z,17.52
2023-02-03T07:08:13.466Z,21.00
2023-02-03T07:10:42.320Z,18.25
2023-02-03T07:13:13.297Z,17.37
2023-02-03T07:15:42.111Z,20.48
2023-02-03T07:18:14.991Z,18.00
2023-02-03T07:20:48.256Z,19.58
2023-02-03T07:23:17.904Z,20.83
2023-02-03T07:25:46.545Z,18.55
2023-02-03T07:28:15.428Z,18.95
2023-02-03T07:30:44.327Z,14.25
2023-02-03T07:33:12.799Z,20.83
2023-02-03T07:35:41.836Z,18.00
2023-02-03T07:38:10.805Z,15.93
2023-02-03T07:40:39.491Z,17.35
2023-02-03T07:43:08.167Z,17.52
2023-02-03T07:45:37.090Z,17.05
2023-02-03T07:48:05.602Z,14.50
2023-02-03T07:50:34.935Z,13.82
2023-02-03T07:53:04.019Z,15.55
2023-02-03T07:55:32.976Z,16.98
2023-02-03T07:58:03.264Z,14.98
2023-02-03T08:00:32.235Z,16.20
2023-02-03T08:03:00.594Z,14.52
2023-02-03T08:05:30.622Z,18.25
2023-02-03T08:07:59.615Z,15.93
2023-02-03T08:10:28.845Z,19.10
2023-02-03T08:12:57.553Z,14.82
2023-02-03T08:15:26.912Z,16.35
2023-02-03T08:17:55.403Z,14.95
2023-02-03T08:20:24.756Z,16.35
2023-02-03T08:22:53.386Z,18.10
2023-02-03T08:25:22.833Z,15.73
2023-02-03T08:27:51.392Z,17.92
2023-02-03T08:30:21.701Z,16.27
2023-02-03T08:32:50.458Z,16.20
2023-02-03T08:35:19.571Z,17.30
2023-02-03T08:37:47.951Z,19.48
2023-02-03T08:40:18.363Z,19.42
2023-02-03T08:42:46.909Z,17.75
2023-02-03T08:45:18.400Z,21.65
2023-02-03T08:47:46.796Z,23.88
2023-02-03T08:50:15.787Z,23.38
2023-02-03T08:52:44.961Z,28.38
2023-02-03T08:55:13.679Z,23.55
2023-02-03T08:57:42.629Z,28.05
2023-02-03T09:00:12.360Z,25.80
2023-02-03T09:02:40.833Z,27.77
2023-02-03T09:05:11.029Z,25.15
2023-02-03T09:07:39.509Z,28.98
2023-02-03T09:10:08.627Z,24.77
2023-02-03T09:12:37.037Z,22.60
2023-02-03T09:15:06.550Z,21.42
2023-02-03T09:17:35.039Z,23.20
2023-02-03T09:20:04.521Z,19.60
2023-02-03T09:22:32.985Z,20.02
2023-02-03T09:25:02.326Z,33.50
2023-02-03T09:27:31.170Z,18.80
2023-02-03T09:30:00.125Z,21.27
2023-02-03T09:32:29.955Z,17.40
2023-02-03T09:34:58.925Z,19.85
2023-02-03T09:37:30.655Z,21.92
2023-02-03T09:39:59.807Z,27.33
2023-02-03T09:42:56.387Z,28.00
2023-02-03T09:45:27.394Z,31.67
2023-02-03T09:48:03.138Z,27.17
2023-02-03T09:50:35.468Z,37.35
2023-02-03T09:53:21.260Z,43.33
2023-02-03T09:55:51.357Z,41.92
2023-02-03T09:58:23.421Z,46.05
2023-02-03T10:01:06.831Z,41.60
2023-02-03T10:03:58.341Z,46.65
2023-02-03T10:06:41.067Z,39.63
2023-02-03T10:09:21.820Z,45.80
2023-02-03T10:12:20.784Z,45.53
2023-02-03T10:15:12.014Z,39.55
2023-02-03T10:18:09.592Z,36.33
2023-02-03T10:20:47.006Z,34.55
2023-02-03T10:23:31.246Z,28.02
2023-02-03T10:26:05.917Z,33.45
2023-02-03T10:28:42.920Z,24.40
2023-02-03T10:31:23.923Z,29.13
2023-02-03T10:34:17.318Z,24.45
2023-02-03T10:37:02.406Z,23.70
2023-02-03T10:39:45.150Z,29.95
2023-02-03T10:42:14.300Z,24.77
2023-02-03T10:44:48.746Z,24.45
2023-02-03T10:47:25.258Z,24.17
2023-02-03T10:49:57.700Z,29.27
2023-02-03T10:52:36.277Z,27.67
2023-02-03T10:55:30.710Z,27.38
2023-02-03T10:58:12.298Z,125.63
2023-02-03T11:00:44.270Z,20.90
2023-02-03T11:03:34.007Z,14.20
2023-02-03T11:06:12.854Z,14.10
2023-02-03T11:08:45.074Z,16.55
2023-02-03T11:11:26.115Z,12.30
2023-02-03T11:14:07.061Z,12.27
2023-02-03T11:16:39.580Z,19.77
2023-02-03T11:19:22.999Z,13.85
2023-02-03T11:21:58.031Z,16.63
2023-02-03T11:24:31.889Z,13.82
2023-02-03T11:27:07.635Z,15.60
2023-02-03T11:29:42.983Z,18.45
2023-02-03T11:32:29.021Z,14.88
2023-02-03T11:35:14.200Z,16.33
2023-02-03T11:37:45.996Z,14.13
2023-02-03T11:40:38.766Z,21.08
2023-02-03T11:43:20.688Z,13.43
2023-02-03T11:45:53.175Z,14.13
2023-02-03T11:48:33.335Z,14.98
2023-02-03T11:51:36.744Z,13.15
2023-02-03T11:54:12.354Z,14.65
2023-02-03T11:57:12.065Z,13.40
2023-02-03T12:00:22.438Z,11.60
2023-02-03T12:03:14.268Z,13.20
2023-02-03T12:06:25.154Z,14.65
2023-02-03T12:09:28.299Z,12.48
2023-02-03T12:12:11.652Z,30.40
2023-02-03T12:15:03.243Z,15.07
2023-02-03T12:17:44.763Z,21.38
2023-02-03T12:20:41.678Z,15.95
2023-02-03T12:23:39.363Z,14.40
2023-02-03T12:26:25.063Z,17.92
2023-02-03T12:29:17.762Z,14.00
2023-02-03T12:32:02.628Z,11.82
2023-02-03T12:35:12.319Z,13.13
2023-02-03T12:37:59.087Z,12.80
2023-02-03T12:40:44.209Z,15.98
2023-02-03T12:43:43.482Z,16.45
2023-02-03T12:47:01.418Z,12.40
2023-02-03T12:49:51.254Z,21.67
2023-02-03T12:52:35.225Z,13.32
2023-02-03T12:55:44.766Z,11.18
2023-02-03T12:58:25.490Z,11.67
2023-02-03T13:01:04.319Z,14.30
2023-02-03T13:04:03.166Z,13.80
2023-02-03T13:07:00.853Z,10.30
2023-02-03T13:09:50.281Z,10.95
2023-02-03T13:12:35.430Z,12.27
2023-02-03T13:15:47.306Z,14.65
2023-02-03T13:18:32.718Z,14.18
2023-02-03T13:24:19.855Z,14.20
2023-02-03T13:27:01.055Z,15.18
2023-02-03T13:29:58.984Z,18.50
2023-02-03T13:33:11.621Z,18.38
2023-02-03T13:35:52.973Z,25.77
2023-02-03T13:38:45.603Z,23.13
2023-02-03T13:43:50.483Z,18.25
2023-02-03T13:46:29.136Z,18.25
2023-02-03T13:49:01.882Z,17.90
2023-02-03T13:51:43.738Z,18.05
2023-02-03T13:57:34.714Z,18.33
2023-02-03T14:00:39.087Z,21.02
2023-02-03T14:03:16.899Z,18.60
2023-02-03T14:05:50.974Z,23.23
2023-02-03T14:08:25.520Z,17.10
2023-02-03T14:11:32.286Z,17.85
2023-02-03T14:14:12.693Z,26.38
2023-02-03T14:16:42.423Z,44.50
2023-02-03T14:19:13.601Z,32.55
2023-02-03T14:22:01.408Z,16.70
2023-02-03T14:24:41.948Z,43.58
2023-02-03T14:27:30.543Z,47.00
2023-02-03T14:30:11.869Z,49.83
2023-02-03T14:32:54.291Z,109.72
2023-02-03T14:35:40.645Z,54.50
2023-02-03T14:38:14.389Z,45.53
2023-02-03T14:41:05.093Z,34.65
2023-02-03T14:43:52.141Z,35.45
2023-02-03T14:46:55.817Z,37.13
2023-02-03T14:49:55.534Z,40.08
2023-02-03T14:52:53.593Z,32.72
2023-02-03T14:55:44.404Z,45.78
2023-02-03T14:58:34.377Z,41.22
2023-02-03T15:01:08.702Z,50.47
2023-02-03T15:03:41.775Z,55.13
2023-02-03T15:06:56.252Z,55.35
2023-02-03T15:09:37.161Z,49.13
2023-02-03T15:12:26.274Z,48.00
2023-02-03T15:15:12.337Z,54.72
2023-02-03T15:17:41.067Z,54.30
2023-02-03T15:20:41.696Z,63.90
2023-02-03T15:23:27.810Z,45.70
2023-02-03T15:26:02.190Z,42.72
2023-02-03T15:28:32.194Z,31.83
2023-02-03T15:31:26.352Z,29.98
2023-02-03T15:33:58.988Z,27.65
2023-02-03T15:36:39.615Z,29.17
2023-02-03T15:40:00.893Z,21.98
2023-02-03T15:42:39.923Z,25.25
2023-02-03T15:45:28.622Z,22.50
2023-02-03T15:48:04.526Z,20.10
2023-02-03T15:50:57.327Z,21.65
2023-02-03T15:53:47.658Z,25.52
2023-02-03T15:56:41.434Z,26.55
2023-02-03T15:59:27.031Z,38.35
2023-02-03T16:01:57.278Z,26.20
2023-02-03T16:04:26.586Z,22.17
2023-02-03T16:06:56.465Z,21.83
2023-02-03T16:09:31.193Z,18.63
2023-02-03T16:12:22.709Z,24.15
2023-02-03T16:14:52.210Z,28.38
2023-02-03T16:17:25.701Z,33.63
2023-02-03T16:20:28.236Z,37.72
2023-02-03T16:23:06.714Z,32.63
2023-02-03T16:25:35.537Z,28.02
2023-02-03T16:28:32.065Z,28.15
2023-02-03T16:31:21.841Z,33.72
2023-02-03T16:34:09.466Z,36.47
2023-02-03T16:37:01.851Z,32.63
2023-02-03T16:39:50.241Z,29.20
2023-02-03T16:42:40.591Z,25.73
2023-02-03T16:45:45.760Z,30.38
2023-02-03T16:48:32.747Z,43.47
2023-02-03T16:51:13.002Z,20.73
2023-02-03T16:53:42.341Z,26.75
2023-02-03T16:56:13.831Z,17.20
2023-02-03T16:58:42.468Z,28.60
2023-02-03T17:01:12.030Z,33.88
2023-02-03T17:15:18.937Z,32.47
2023-02-03T17:17:53.594Z,25.02
2023-02-03T17:20:32.794Z,29.23
2023-02-03T17:27:08.738Z,22.13
2023-02-03T17:29:40.260Z,32.63
2023-02-03T17:32:23.761Z,39.88
2023-02-03T17:34:53.883Z,30.55
2023-02-03T17:37:23.895Z,42.40
2023-02-03T17:56:02.565Z,17.35
2023-02-03T17:58:35.159Z,17.73
2023-02-03T18:01:27.295Z,17.13
2023-02-03T18:04:28.392Z,22.85
2023-02-03T18:07:05.031Z,18.65
2023-02-03T18:09:41.821Z,18.75
2023-02-03T18:13:23.932Z,17.17
2023-02-03T18:15:37.890Z,23.45
2023-02-03T18:18:10.933Z,11.93
2023-02-03T18:21:10.463Z,29.55
2023-02-03T18:23:46.768Z,21.42
2023-02-03T18:26:45.702Z,27.38
2023-02-03T18:29:48.223Z,42.45
2023-02-03T18:32:37.956Z,41.00
2023-02-03T18:35:15.951Z,180.77
2023-02-03T18:38:24.991Z,463.27
2023-02-03T18:41:36.740Z,215.13
2023-02-03T18:44:32.299Z,700.85
2023-02-03T18:51:38.353Z,74.65
2023-02-03T18:54:12.342Z,77.45
2023-02-03T18:57:41.848Z,91.32
2023-02-03T19:00:28.499Z,158.82
2023-02-03T19:03:42.119Z,173.75
2023-02-03T19:06:24.502Z,237.57
2023-02-03T19:09:07.617Z,256.60
2023-02-03T19:12:11.534Z,248.82
2023-02-03T19:14:58.629Z,132.75
2023-02-03T19:17:48.111Z,84.65
2023-02-03T19:23:51.816Z,103.85
2023-02-03T19:27:01.776Z,143.07
2023-02-03T19:29:59.417Z,127.55
2023-02-03T19:32:44.992Z,90.63
2023-02-03T19:35:15.622Z,106.53
2023-02-03T19:38:11.873Z,132.60
2023-02-03T19:40:50.846Z,178.18
2023-02-03T19:43:56.388Z,150.50
2023-02-03T19:46:55.238Z,174.50
2023-02-03T19:49:43.345Z,102.78
2023-02-03T19:52:35.459Z,117.07
2023-02-03T19:55:30.901Z,101.22
2023-02-03T19:58:46.303Z,115.10
2023-02-03T20:01:15.539Z,87.05
2023-02-03T20:04:07.708Z,85.53
2023-02-03T20:06:51.855Z,91.95
2023-02-03T20:09:55.310Z,84.95
2023-02-03T20:13:12.048Z,97.07
2023-02-03T20:17:22.528Z,72.15
2023-02-03T20:18:51.161Z,108.53
2023-02-03T20:26:04.643Z,47.97
2023-02-03T20:28:47.535Z,74.70
2023-02-03T20:31:55.207Z,71.80
2023-02-03T20:34:52.482Z,79.10
2023-02-03T21:56:27.065Z,34.35
2023-02-03T21:59:01.615Z,32.63
2023-02-03T22:01:37.016Z,33.30
2023-02-03T22:04:19.300Z,32.05
2023-02-03T22:06:56.773Z,32.03
2023-02-03T22:09:32.111Z,25.63
2023-02-03T22:12:03.731Z,28.30
2023-02-03T22:17:03.701Z,24.42
2023-02-03T22:19:35.506Z,22.70
2023-02-03T22:22:07.293Z,25.58
2023-02-03T22:24:36.383Z,23.33
2023-02-03T22:27:07.919Z,21.55
2023-02-03T22:29:40.068Z,20.77
2023-02-03T22:32:10.414Z,20.65
2023-02-03T22:34:39.514Z,20.20
2023-02-03T22:37:11.168Z,17.17
2023-02-03T22:39:42.716Z,19.02
2023-02-03T22:42:11.081Z,18.65
2023-02-03T22:44:42.654Z,18.75
2023-02-03T22:47:14.182Z,16.35
2023-02-03T22:52:18.967Z,20.63
2023-02-03T22:54:47.841Z,18.00
2023-02-03T22:57:18.837Z,16.85
2023-02-03T22:59:50.420Z,20.92
2023-02-03T23:02:21.859Z,17.57
2023-02-03T23:07:23.215Z,17.20
2023-02-03T23:09:55.447Z,13.68
2023-02-03T23:12:28.201Z,14.20
2023-02-03T23:15:20.403Z,13.45
2023-02-03T23:17:49.143Z,13.63
2023-02-03T23:20:22.677Z,10.43
2023-02-03T23:22:54.110Z,12.82
2023-02-03T23:25:35.038Z,13.70
2023-02-03T23:28:03.808Z,14.25
2023-02-03T23:30:35.860Z,13.43
2023-02-03T23:33:10.656Z,14.60
2023-02-03T23:36:21.115Z,11.85
2023-02-03T23:39:02.590Z,13.82
2023-02-03T23:41:34.003Z,10.45
2023-02-03T23:44:07.795Z,11.52
2023-02-03T23:46:49.303Z,13.23
2023-02-03T23:49:35.438Z,11.77
2023-02-03T23:52:25.173Z,8.38
2023-02-03T23:54:55.295Z,8.90
2023-02-03T23:57:42.137Z,10.40
